Time;durP1;ratioP1;P1;durP2;ratioP2;P2;SDS_P1;SDS_P2;PMS_P1;PMS_P2;Temp;Humidity;BMP_temperature;BMP_pressure;BME280_temperature;BME280_humidity;BME280_pressure;Samples;Min_cycle;Max_cycle;Signal;HPM_P1;HPM_P2
2021/11/17 02:25:44;;;;;;;102.38;30.95;;;;;;;3.73;100.00;101787.06;2092491;28;20048;-67
2021/11/17 02:27:06;;;;;;;97.40;30.37;;;;;;;3.72;100.00;101782.75;2091519;28;20029;-67
2021/11/17 02:28:25;;;;;;;;;;;;;;;3.73;100.00;101779.31;2092842;28;20025;-67
2021/11/17 02:29:44;;;;;;;89.25;24.52;;;;;;;3.75;100.00;101777.59;2090651;28;19908;-68
2021/11/17 02:31:12;;;;;;;108.85;33.53;;;;;;;3.77;100.00;101780.19;2084732;28;20057;-68
2021/11/17 02:32:22;;;;;;;103.68;31.23;;;;;;;3.78;100.00;101780.19;2084840;28;20021;-65
2021/11/17 02:33:47;;;;;;;109.57;31.02;;;;;;;3.80;100.00;101770.69;2089781;28;20059;-67
2021/11/17 02:35:08;;;;;;;106.15;29.75;;;;;;;3.81;100.00;101772.44;2089567;28;20017;-67
2021/11/17 02:36:34;;;;;;;107.93;28.30;;;;;;;3.81;100.00;101776.75;2083946;28;20439;-67
2021/11/17 02:37:56;;;;;;;105.63;29.38;;;;;;;3.79;100.00;101773.28;2084618;28;20237;-67
2021/11/17 02:39:18;;;;;;;111.25;28.70;;;;;;;3.80;100.00;101775.03;2089598;28;20478;-67
2021/11/17 02:40:45;;;;;;;99.40;29.27;;;;;;;3.79;100.00;101774.16;2089907;28;20521;-67
2021/11/17 02:42:24;;;;;;;108.53;31.30;;;;;;;3.83;100.00;101775.03;2089162;28;20040;-68
2021/11/17 02:43:31;;;;;;;107.03;29.50;;;;;;;3.86;100.00;101772.44;2089149;28;20037;-67
2021/11/17 02:44:49;;;;;;;98.32;28.23;;;;;;;3.88;100.00;101780.19;2089945;28;20025;-66
2021/11/17 02:46:15;;;;;;;102.13;27.50;;;;;;;3.90;100.00;101781.06;2089873;28;20063;-67
2021/11/17 02:47:40;;;;;;;89.55;27.52;;;;;;;3.90;100.00;101768.97;2089292;28;20067;-67
2021/11/17 02:49:05;;;;;;;100.82;28.05;;;;;;;3.94;100.00;101769.88;2089528;28;20013;-67
2021/11/17 02:50:47;;;;;;;97.63;27.50;;;;;;;3.95;100.00;101771.56;2089301;28;20020;-66
2021/11/17 02:51:53;;;;;;;101.85;30.27;;;;;;;3.96;100.00;101779.31;2078060;28;20066;-66
2021/11/17 02:53:25;;;;;;;97.93;27.00;;;;;;;4.00;100.00;101772.44;2080807;28;20546;-66
2021/11/17 02:55:16;;;;;;;103.20;28.77;;;;;;;4.03;100.00;101771.59;2072418;28;20064;-66
2021/11/17 02:56:17;;;;;;;93.15;25.90;;;;;;;4.04;100.00;101773.31;2040640;29;20050;-67
2021/11/17 02:57:54;;;;;;;96.83;24.03;;;;;;;4.06;100.00;101777.59;2083248;28;20556;-67
2021/11/17 02:59:10;;;;;;;107.65;27.77;;;;;;;4.06;100.00;101782.78;2090024;28;20062;-67
2021/11/17 03:00:27;;;;;;;93.57;27.90;;;;;;;4.08;100.00;101782.78;2089897;28;20078;-66
2021/11/17 03:01:39;;;;;;;83.93;25.85;;;;;;;4.09;100.00;101787.94;2081016;28;20124;-67
2021/11/17 03:03:01;;;;;;;97.05;27.88;;;;;;;4.11;100.00;101791.38;2078288;28;20025;-66
2021/11/17 03:04:13;;;;;;;90.40;26.60;;;;;;;4.13;100.00;101791.38;2090967;28;20021;-67
2021/11/17 03:05:23;;;;;;;94.18;27.27;;;;;;;4.14;100.00;101794.84;2091311;28;20060;-67
2021/11/17 03:06:54;;;;;;;98.13;25.73;;;;;;;4.16;100.00;101798.25;2082304;28;20021;-66
2021/11/17 03:08:32;;;;;;;92.35;28.08;;;;;;;4.18;100.00;101791.38;2082437;28;20052;-66
2021/11/17 03:09:48;;;;;;;92.05;27.83;;;;;;;4.19;100.00;101798.28;2091065;28;20025;-67
2021/11/17 03:11:26;;;;;;;79.85;26.48;;;;;;;4.21;100.00;101799.16;2082477;28;20025;-67
2021/11/17 03:13:03;;;;;;;87.75;25.35;;;;;;;4.22;100.00;101798.28;2076100;28;20037;-66
2021/11/17 03:14:19;;;;;;;94.60;24.92;;;;;;;4.21;100.00;101800.00;2090254;28;20032;-66
2021/11/17 03:15:35;;;;;;;97.55;27.27;;;;;;;4.22;100.00;101790.53;2091250;28;20036;-67
2021/11/17 03:16:45;;;;;;;99.97;29.63;;;;;;;4.23;100.00;101787.94;2091286;28;20036;-66
2021/11/17 03:17:56;;;;;;;106.70;26.95;;;;;;;4.24;100.00;101779.31;2090596;28;20508;-66
2021/11/17 03:19:29;;;;;;;95.30;28.70;;;;;;;4.25;100.00;101780.19;2083872;28;20459;-66
2021/11/17 03:20:38;;;;;;;;;;;;;;;4.28;100.00;101782.78;2078742;28;20128;-67
2021/11/17 03:21:47;;;;;;;74.70;20.90;;;;;;;4.28;100.00;101780.19;2086361;28;19908;-66
2021/11/17 03:23:29;;;;;;;92.82;27.30;;;;;;;4.29;100.00;101778.44;2091235;28;20029;-66
2021/11/17 03:24:45;;;;;;;90.60;27.02;;;;;;;4.29;100.00;101786.22;2081848;28;20045;-66
2021/11/17 03:26:00;;;;;;;93.07;28.95;;;;;;;4.28;100.00;101782.78;2073856;28;20062;-66
2021/11/17 03:27:09;;;;;;;86.47;24.10;;;;;;;4.30;100.00;101785.34;2075747;28;20392;-67
2021/11/17 03:28:28;;;;;;;100.93;29.95;;;;;;;4.31;100.00;101798.25;2073874;28;20025;-68
2021/11/17 03:29:44;;;;;;;95.13;26.42;;;;;;;4.32;100.00;101799.13;2076229;28;20026;-66
2021/11/17 03:31:03;;;;;;;86.78;25.80;;;;;;;4.32;100.00;101801.72;2090438;28;20021;-68
2021/11/17 03:32:22;;;;;;;83.30;26.23;;;;;;;4.32;100.00;101805.19;2084650;28;20055;-67
2021/11/17 03:33:41;;;;;;;89.93;24.77;;;;;;;4.34;100.00;101808.59;2077818;28;20033;-67
2021/11/17 03:34:49;;;;;;;95.10;29.52;;;;;;;4.36;100.00;101806.00;2086202;28;20032;-66
2021/11/17 03:36:20;;;;;;;87.65;26.58;;;;;;;4.36;100.00;101809.47;2091065;28;20037;-67
2021/11/17 03:37:20;;;;;;;91.50;28.48;;;;;;;4.35;100.00;101810.31;2091116;28;20025;-67
2021/11/17 03:38:20;;;;;;;81.60;26.03;;;;;;;4.36;100.00;101800.84;2091251;28;20107;-67
2021/11/17 03:39:38;;;;;;;83.10;26.93;;;;;;;4.36;100.00;101796.56;2090411;28;20035;-66
2021/11/17 03:41:06;;;;;;;91.82;27.73;;;;;;;4.36;100.00;101795.69;2090637;28;20036;-67
2021/11/17 03:42:25;;;;;;;87.50;26.23;;;;;;;4.37;100.00;101787.94;2082197;28;20029;-67
2021/11/17 03:43:34;;;;;;;92.72;27.60;;;;;;;4.39;100.00;101782.75;2087439;28;20387;-66
2021/11/17 03:45:05;;;;;;;93.93;24.75;;;;;;;4.40;100.00;101781.00;2091132;28;20498;-66
2021/11/17 03:46:20;;;;;;;82.95;25.67;;;;;;;4.40;100.00;101775.84;2090973;28;20096;-67
2021/11/17 03:47:27;;;;;;;89.65;25.30;;;;;;;4.40;100.00;101775.84;2091064;28;20025;-67
2021/11/17 03:48:39;;;;;;;92.55;26.83;;;;;;;4.39;100.00;101775.00;2091129;28;20027;-66
2021/11/17 03:49:58;;;;;;;101.70;30.77;;;;;;;4.38;100.00;101776.72;2090945;28;20028;-67
2021/11/17 03:50:58;;;;;;;78.82;23.10;;;;;;;4.40;100.00;101766.38;2091060;28;20025;-68
2021/11/17 03:52:32;;;;;;;88.50;27.43;;;;;;;4.42;100.00;101761.22;2090339;28;20037;-65
2021/11/17 03:53:41;;;;;;;90.03;25.70;;;;;;;4.42;100.00;101763.78;2078504;28;20017;-66
2021/11/17 03:55:11;;;;;;;92.07;26.92;;;;;;;4.42;100.00;101766.38;2076045;28;20033;-66
2021/11/17 03:56:23;;;;;;;95.25;28.02;;;;;;;4.41;100.00;101775.84;2081995;28;20471;-66
2021/11/17 03:57:51;;;;;;;92.05;25.90;;;;;;;4.42;100.00;101792.22;2083772;28;20462;-67
2021/11/17 03:59:23;;;;;;;71.40;23.92;;;;;;;4.43;100.00;101788.78;2085661;28;20043;-67
2021/11/17 04:00:46;;;;;;;84.78;26.40;;;;;;;4.42;100.00;101787.06;2090688;28;20037;-67
2021/11/17 04:01:59;;;;;;;80.95;24.67;;;;;;;4.43;100.00;101791.34;2090941;28;20358;-67
2021/11/17 04:03:15;;;;;;;78.97;20.85;;;;;;;4.43;100.00;101786.19;2090250;28;20090;-67
2021/11/17 04:04:37;;;;;;;88.45;24.48;;;;;;;4.44;100.00;101781.03;2084491;28;20021;-67
2021/11/17 04:05:37;;;;;;;;;;;;;;;4.47;100.00;101786.19;2085386;28;20037;-66
2021/11/17 04:07:08;;;;;;;87.47;23.90;;;;;;;4.49;100.00;101778.44;2090181;28;19958;-66
2021/11/17 04:08:36;;;;;;;86.75;23.15;;;;;;;4.50;100.00;101773.25;2090344;28;20307;-67
2021/11/17 04:09:54;;;;;;;76.93;22.30;;;;;;;4.52;100.00;101770.69;2090609;28;20028;-67
2021/11/17 04:11:13;;;;;;;76.65;22.02;;;;;;;4.53;100.00;101767.22;2090289;28;20033;-67
2021/11/17 04:12:31;;;;;;;75.90;23.45;;;;;;;4.51;100.00;101768.94;2090411;28;20466;-66
2021/11/17 04:13:37;;;;;;;81.53;25.27;;;;;;;4.52;100.00;101770.69;2090144;28;20120;-67
2021/11/17 04:14:43;;;;;;;82.35;24.10;;;;;;;4.54;100.00;101776.69;2090362;28;20029;-68
2021/11/17 04:16:03;;;;;;;99.03;28.52;;;;;;;4.55;100.00;101777.56;2090103;28;20025;-67
2021/11/17 04:17:06;;;;;;;83.65;24.65;;;;;;;4.56;100.00;101772.41;2090419;28;20063;-67
2021/11/17 04:18:27;;;;;;;80.72;25.10;;;;;;;4.56;100.00;101784.44;2090788;28;20025;-68
2021/11/17 04:19:55;;;;;;;88.72;25.83;;;;;;;4.56;100.00;101785.31;2090716;28;20108;-67
2021/11/17 04:21:23;;;;;;;71.10;22.02;;;;;;;4.57;100.00;101789.63;2090894;28;20031;-67
2021/11/17 04:22:41;;;;;;;77.20;21.58;;;;;;;4.59;100.00;101787.88;2090189;28;20028;-67
2021/11/17 04:24:00;;;;;;;88.07;25.67;;;;;;;4.61;100.00;101791.34;2086702;28;20171;-67
2021/11/17 04:25:42;;;;;;;81.10;24.58;;;;;;;4.62;100.00;101793.03;2084511;28;20077;-66
2021/11/17 04:26:42;;;;;;;83.20;23.40;;;;;;;4.62;100.00;101793.03;2088205;28;20040;-67
2021/11/17 04:28:08;;;;;;;75.60;24.80;;;;;;;4.63;100.00;101799.94;2090188;28;20523;-67
2021/11/17 04:29:26;;;;;;;79.28;22.08;;;;;;;4.63;100.00;101799.09;2090707;28;20029;-67
2021/11/17 04:30:49;;;;;;;78.90;22.75;;;;;;;4.64;100.00;101806.84;2090687;28;20090;-67
2021/11/17 04:32:11;;;;;;;87.50;26.33;;;;;;;4.66;100.00;101799.09;2090657;28;20020;-66
2021/11/17 04:33:20;;;;;;;79.65;24.38;;;;;;;4.68;100.00;101796.50;2090777;28;20021;-66
2021/11/17 04:35:10;;;;;;;89.07;26.13;;;;;;;4.69;100.00;101795.63;2090605;28;20078;-66
2021/11/17 04:36:22;;;;;;;79.75;22.08;;;;;;;4.69;100.00;101799.06;2086835;28;20371;-68
2021/11/17 04:37:30;;;;;;;78.97;21.77;;;;;;;4.71;100.00;101799.06;2090358;28;20060;-67
2021/11/17 04:38:30;;;;;;;91.03;24.60;;;;;;;4.71;100.00;101804.22;2090666;28;20555;-67
2021/11/17 04:39:49;;;;;;;75.60;22.03;;;;;;;4.71;99.92;101799.94;2089974;28;20025;-67
2021/11/17 04:41:10;;;;;;;82.22;25.00;;;;;;;4.71;100.00;101799.94;2090208;28;20028;-67
2021/11/17 04:42:20;;;;;;;83.03;24.90;;;;;;;4.72;100.00;101800.81;2090535;28;20025;-67
2021/11/17 04:44:03;;;;;;;86.10;28.02;;;;;;;4.74;100.00;101801.66;2089869;28;20032;-67
2021/11/17 04:45:09;;;;;;;77.65;21.25;;;;;;;4.73;100.00;101798.19;2079128;28;20372;-67
2021/11/17 04:46:40;;;;;;;75.97;23.60;;;;;;;4.73;100.00;101793.00;2082475;28;20037;-67
2021/11/17 04:47:46;;;;;;;79.57;23.88;;;;;;;4.73;100.00;101794.75;2073482;28;20537;-66
2021/11/17 04:49:47;;;;;;;87.28;25.92;;;;;;;4.73;100.00;101794.75;2076791;28;20053;-67
2021/11/17 04:51:21;;;;;;;79.72;21.45;;;;;;;4.73;100.00;101794.75;2081264;28;20511;-67
2021/11/17 04:52:55;;;;;;;82.35;23.65;;;;;;;4.70;100.00;101794.75;2073286;28;20168;-66
2021/11/17 04:53:58;;;;;;;88.47;27.50;;;;;;;4.69;100.00;101785.28;2086246;28;20017;-67
2021/11/17 04:55:14;;;;;;;86.88;27.52;;;;;;;4.69;100.00;101788.72;2090131;28;20028;-66
2021/11/17 04:56:31;;;;;;;83.32;25.10;;;;;;;4.70;100.00;101780.13;2089834;28;20028;-68
2021/11/17 04:58:08;;;;;;;99.57;29.00;;;;;;;4.69;100.00;101777.53;2084196;28;20036;-66
2021/11/17 04:59:37;;;;;;;88.03;23.75;;;;;;;4.69;100.00;101772.34;2090285;28;20063;-66
2021/11/17 05:00:56;;;;;;;90.43;25.92;;;;;;;4.68;100.00;101766.31;2090429;28;20071;-66
2021/11/17 05:02:26;;;;;;;88.28;27.58;;;;;;;4.68;100.00;101775.81;2081792;28;20067;-65
2021/11/17 05:03:54;;;;;;;81.75;24.13;;;;;;;4.66;100.00;101773.22;2070293;28;20411;-66
2021/11/17 05:05:06;;;;;;;80.78;24.40;;;;;;;4.67;100.00;101768.91;2090469;28;20025;-67
2021/11/17 05:06:41;;;;;;;83.60;23.40;;;;;;;4.66;100.00;101755.13;2089790;28;20021;-67
2021/11/17 05:08:11;;;;;;;83.20;24.85;;;;;;;4.66;100.00;101759.44;2086208;28;20047;-66
2021/11/17 05:09:33;;;;;;;84.90;24.42;;;;;;;4.65;100.00;101758.56;2077503;28;20018;-65
2021/11/17 05:10:42;;;;;;;85.45;24.98;;;;;;;4.66;100.00;101764.59;2078921;28;20025;-65
2021/11/17 05:11:42;;;;;;;86.80;24.15;;;;;;;4.64;100.00;101749.97;2089975;28;20025;-65
2021/11/17 05:13:10;;;;;;;87.00;25.93;;;;;;;4.64;100.00;101747.38;2090386;28;20478;-66
2021/11/17 05:14:23;;;;;;;84.30;27.80;;;;;;;4.63;100.00;101743.03;2090438;28;20040;-65
2021/11/17 05:15:39;;;;;;;89.50;25.90;;;;;;;4.64;100.00;101726.69;2090350;28;20040;-65
2021/11/17 05:17:02;;;;;;;82.72;24.45;;;;;;;4.62;100.00;101715.47;2090359;28;20099;-66
2021/11/17 05:18:21;;;;;;;101.03;27.38;;;;;;;4.59;100.00;101715.47;2090231;28;20056;-66
2021/11/17 05:19:43;;;;;;;85.90;25.98;;;;;;;4.57;100.00;101722.41;2090379;28;20025;-67
2021/11/17 05:21:02;;;;;;;82.15;23.25;;;;;;;4.55;100.00;101725.84;2090348;28;20202;-66
2021/11/17 05:22:30;;;;;;;74.68;22.48;;;;;;;4.51;100.00;101723.28;2089644;28;20082;-66
2021/11/17 05:23:59;;;;;;;73.25;22.73;;;;;;;4.48;100.00;101735.38;2084975;28;20031;-67
2021/11/17 05:25:31;;;;;;;80.43;22.85;;;;;;;4.47;100.00;101752.59;2082730;28;20051;-66
2021/11/17 05:26:56;;;;;;;86.82;27.75;;;;;;;4.44;100.00;101752.59;2090038;28;20017;-66
2021/11/17 05:28:05;;;;;;;82.35;25.33;;;;;;;4.45;100.00;101748.28;2089621;28;20080;-66
2021/11/17 05:29:23;;;;;;;88.40;24.65;;;;;;;4.42;100.00;101748.28;2085019;28;20110;-67
2021/11/17 05:30:48;;;;;;;92.68;27.20;;;;;;;4.40;100.00;101750.00;2083728;28;20087;-66
2021/11/17 05:32:07;;;;;;;75.85;24.00;;;;;;;4.38;100.00;101748.28;2084866;28;20426;-66
2021/11/17 05:33:27;;;;;;;90.38;26.27;;;;;;;4.37;100.00;101746.56;2089520;28;20037;-66
2021/11/17 05:34:42;;;;;;;88.47;25.88;;;;;;;4.38;100.00;101750.88;2087002;28;20064;-66
2021/11/17 05:36:15;;;;;;;83.38;24.25;;;;;;;4.41;100.00;101741.41;2084104;28;20020;-67
2021/11/17 05:37:27;;;;;;;88.30;26.48;;;;;;;4.42;100.00;101737.94;2085910;28;20036;-66
2021/11/17 05:38:42;;;;;;;77.32;21.73;;;;;;;4.42;100.00;101737.94;2074660;28;20045;-68
2021/11/17 05:39:58;;;;;;;86.63;28.20;;;;;;;4.42;100.00;101740.53;2083400;28;20482;-66
2021/11/17 05:41:26;;;;;;;100.90;28.52;;;;;;;4.42;100.00;101730.19;2090256;28;20078;-66
2021/11/17 05:42:57;;;;;;;83.13;26.13;;;;;;;4.45;100.00;101731.03;2089620;28;20474;-65
2021/11/17 05:44:07;;;;;;;85.80;25.42;;;;;;;4.45;100.00;101728.44;2079980;28;20037;-66
2021/11/17 05:45:29;;;;;;;88.10;25.40;;;;;;;4.45;100.00;101730.19;2070018;28;20040;-66
2021/11/17 05:47:04;;;;;;;84.38;24.40;;;;;;;4.44;100.00;101733.63;2078727;28;20037;-65
2021/11/17 05:48:42;;;;;;;81.47;23.00;;;;;;;4.43;100.00;101740.53;2089542;28;20414;-66
2021/11/17 05:49:49;;;;;;;91.68;25.95;;;;;;;4.43;100.00;101744.84;2090160;28;20074;-66
2021/11/17 05:50:55;;;;;;;90.05;26.38;;;;;;;4.45;100.00;101745.69;2089515;28;20020;-65
2021/11/17 05:52:13;;;;;;;90.68;24.98;;;;;;;4.47;100.00;101752.59;2089541;28;20048;-67
2021/11/17 05:53:32;;;;;;;85.95;24.77;;;;;;;4.48;100.00;101741.38;2090216;28;20573;-68
2021/11/17 05:54:53;;;;;;;88.65;26.30;;;;;;;4.50;100.00;101741.38;2089477;28;20043;-66
2021/11/17 05:56:26;;;;;;;80.95;25.52;;;;;;;4.52;100.00;101744.81;2084100;28;20020;-67
2021/11/17 05:57:38;;;;;;;81.20;22.48;;;;;;;4.56;100.00;101750.84;2081304;28;20055;-65
2021/11/17 05:59:04;;;;;;;85.97;25.00;;;;;;;4.57;100.00;101737.91;2089517;28;20021;-65
2021/11/17 06:00:16;;;;;;;87.32;26.27;;;;;;;4.59;100.00;101736.16;2089434;28;20017;-66
2021/11/17 06:01:41;;;;;;;93.07;27.63;;;;;;;4.59;100.00;101740.50;2085194;28;20067;-66
2021/11/17 06:02:50;;;;;;;98.40;27.80;;;;;;;4.58;100.00;101734.44;2089748;28;20478;-67
2021/11/17 06:03:57;;;;;;;80.30;26.25;;;;;;;4.56;100.00;101741.38;2089504;28;20058;-67
2021/11/17 06:04:57;;;;;;;84.32;26.27;;;;;;;4.55;100.00;101749.97;2089508;28;20524;-66
2021/11/17 06:05:57;;;;;;;96.23;29.20;;;;;;;4.54;100.00;101750.84;2089533;28;20110;-67
2021/11/17 06:06:59;;;;;;;94.30;30.20;;;;;;;4.52;100.00;101750.00;2089547;28;20027;-66
2021/11/17 06:07:59;;;;;;;89.68;28.08;;;;;;;4.50;100.00;101751.72;2089361;28;20025;-67
2021/11/17 06:08:59;;;;;;;89.90;26.87;;;;;;;4.47;100.00;101749.13;2089524;28;20037;-65
2021/11/17 06:10:16;;;;;;;92.00;24.80;;;;;;;4.46;100.00;101762.94;2090091;28;20037;-66
2021/11/17 06:11:19;;;;;;;83.68;26.17;;;;;;;4.45;100.00;101753.47;2090063;28;20449;-69
2021/11/17 06:12:19;;;;;;;91.70;29.92;;;;;;;4.46;100.00;101756.03;2089458;28;20044;-66
2021/11/17 06:13:21;;;;;;;93.00;26.57;;;;;;;4.49;100.00;101747.41;2089544;28;20053;-67
2021/11/17 06:14:25;;;;;;;83.80;25.88;;;;;;;4.52;100.00;101750.00;2090180;28;20032;-67
2021/11/17 06:15:26;;;;;;;90.85;29.45;;;;;;;4.54;100.00;101750.84;2090054;28;20073;-66
2021/11/17 06:16:29;;;;;;;85.53;26.52;;;;;;;4.55;100.00;101759.47;2089410;28;20094;-66
2021/11/17 06:17:29;;;;;;;86.13;27.42;;;;;;;4.56;100.00;101762.06;2089543;28;20025;-67
2021/11/17 06:18:34;;;;;;;96.88;30.73;;;;;;;4.56;100.00;101756.00;2090184;28;20486;-66
2021/11/17 06:19:39;;;;;;;83.72;26.75;;;;;;;4.57;100.00;101753.41;2090075;28;20021;-67
2021/11/17 06:20:40;;;;;;;86.70;25.67;;;;;;;4.56;100.00;101756.88;2090021;28;20017;-67
2021/11/17 06:21:42;;;;;;;88.68;27.95;;;;;;;4.57;100.00;101761.19;2090004;28;20017;-67
2021/11/17 06:22:46;;;;;;;88.13;30.05;;;;;;;4.58;100.00;101759.47;2090063;28;20104;-67
2021/11/17 06:23:58;;;;;;;81.10;27.73;;;;;;;4.58;100.00;101759.47;2090060;28;20017;-67
2021/11/17 06:25:04;;;;;;;77.03;24.13;;;;;;;4.59;100.00;101756.00;2089340;28;20122;-66
2021/11/17 06:26:10;;;;;;;86.93;30.15;;;;;;;4.60;100.00;101758.59;2089432;28;20513;-66
2021/11/17 06:27:14;;;;;;;78.60;27.02;;;;;;;4.60;100.00;101748.25;2089997;28;20033;-66
2021/11/17 06:28:24;;;;;;;89.38;27.67;;;;;;;4.61;100.00;101757.72;2089972;28;20085;-68
2021/11/17 06:29:41;;;;;;;79.30;23.92;;;;;;;4.63;100.00;101747.38;2090066;28;20442;-67
2021/11/17 06:30:44;;;;;;;77.15;25.88;;;;;;;4.64;100.00;101742.19;2089998;28;20039;-67
2021/11/17 06:31:47;;;;;;;84.47;27.90;;;;;;;4.66;100.00;101754.25;2089981;28;20032;-67
2021/11/17 06:32:51;;;;;;;89.80;29.80;;;;;;;4.69;100.00;101754.25;2089954;28;20398;-68
2021/11/17 06:33:52;;;;;;;80.43;27.80;;;;;;;4.70;100.00;101753.38;2089929;28;20458;-67
2021/11/17 06:34:56;;;;;;;73.72;25.70;;;;;;;4.71;100.00;101750.78;2089216;28;20017;-66
2021/11/17 06:35:57;;;;;;;75.53;24.52;;;;;;;4.72;100.00;101756.84;2090099;28;20053;-67
2021/11/17 06:36:59;;;;;;;86.40;25.17;;;;;;;4.72;100.00;101765.44;2091720;28;20013;-67
2021/11/17 06:37:59;;;;;;;80.80;28.63;;;;;;;4.73;100.00;101768.91;2091580;28;20053;-67
2021/11/17 06:38:59;;;;;;;76.87;27.83;;;;;;;4.75;100.00;101769.72;2091624;28;20017;-67
2021/11/17 06:40:03;;;;;;;77.83;27.63;;;;;;;4.77;100.00;101770.59;2091570;28;20025;-67
2021/11/17 06:41:03;;;;;;;88.95;27.75;;;;;;;4.80;100.00;101770.59;2091567;28;20036;-66
2021/11/17 06:42:08;;;;;;;94.93;26.58;;;;;;;4.81;100.00;101772.31;2090932;28;20494;-68
2021/11/17 06:43:10;;;;;;;78.10;27.67;;;;;;;4.81;100.00;101767.13;2083040;28;20025;-72
2021/11/17 06:44:10;;;;;;;87.40;26.15;;;;;;;4.84;100.00;101777.47;2091029;28;20023;-68
2021/11/17 06:45:17;;;;;;;77.47;26.07;;;;;;;4.86;100.00;101783.50;2091442;28;20028;-66
2021/11/17 06:46:18;;;;;;;78.80;26.02;;;;;;;4.87;100.00;101782.66;2091461;28;20496;-68
2021/11/17 06:47:18;;;;;;;80.10;27.23;;;;;;;4.90;100.00;101776.59;2091519;28;20013;-67
2021/11/17 06:48:21;;;;;;;83.13;26.20;;;;;;;4.92;100.00;101781.78;2090862;28;20025;-68
2021/11/17 06:49:21;;;;;;;78.72;27.05;;;;;;;4.93;100.00;101775.72;2090919;28;20036;-67
2021/11/17 06:50:22;;;;;;;85.43;28.00;;;;;;;4.95;100.00;101794.66;2091497;28;20025;-67
2021/11/17 06:51:22;;;;;;;78.60;25.83;;;;;;;4.96;100.00;101780.91;2091600;28;20028;-68
2021/11/17 06:52:23;;;;;;;92.13;27.73;;;;;;;4.98;100.00;101781.72;2091453;28;20025;-68
2021/11/17 06:53:25;;;;;;;90.43;29.27;;;;;;;4.99;100.00;101786.03;2091504;28;20024;-70
2021/11/17 06:54:25;;;;;;;85.20;28.33;;;;;;;5.00;100.00;101786.03;2091479;28;20032;-70
2021/11/17 06:55:26;;;;;;;84.87;25.67;;;;;;;5.02;100.00;101793.78;2091504;28;20021;-69
2021/11/17 06:56:27;;;;;;;79.07;25.27;;;;;;;5.03;100.00;101787.75;2091529;28;20036;-67
2021/11/17 06:57:28;;;;;;;82.20;26.92;;;;;;;5.05;100.00;101786.03;2091262;28;20013;-69
2021/11/17 06:58:28;;;;;;;77.77;26.30;;;;;;;5.06;100.00;101781.72;2091475;28;20108;-69
2021/11/17 06:59:28;;;;;;;78.17;27.43;;;;;;;5.07;100.00;101784.31;2091464;28;20021;-71
2021/11/17 07:00:32;;;;;;;76.90;26.53;;;;;;;5.07;100.00;101779.13;2090773;28;20029;-69
2021/11/17 07:01:33;;;;;;;81.32;26.30;;;;;;;5.09;100.00;101781.69;2090787;28;20035;-68
2021/11/17 07:02:34;;;;;;;78.38;27.13;;;;;;;5.10;100.00;101778.25;2090734;28;20020;-69
2021/11/17 07:03:34;;;;;;;90.07;27.77;;;;;;;5.11;100.00;101780.84;2090675;28;20037;-68
2021/11/17 07:04:36;;;;;;;84.47;27.80;;;;;;;5.12;100.00;101787.72;2091386;28;20536;-66
2021/11/17 07:05:36;;;;;;;77.20;23.42;;;;;;;5.14;100.00;101800.66;2090552;28;20545;-69
2021/11/17 07:06:37;;;;;;;78.03;26.63;;;;;;;5.14;100.00;101793.72;2082329;28;20021;-68
2021/11/17 07:07:38;;;;;;;80.63;25.98;;;;;;;5.15;100.00;101790.31;2090741;28;20020;-69
2021/11/17 07:08:39;;;;;;;73.50;24.92;;;;;;;5.17;100.00;101792.88;2090635;28;20021;-69
2021/11/17 07:09:39;;;;;;;77.32;25.00;;;;;;;5.19;100.00;101792.84;2090769;28;20016;-68
2021/11/17 07:10:40;;;;;;;89.90;29.43;;;;;;;5.19;100.00;101792.84;2091296;28;20027;-68
2021/11/17 07:11:40;;;;;;;86.27;26.63;;;;;;;5.20;100.00;101786.84;2091365;28;20496;-68
2021/11/17 07:12:40;;;;;;;79.73;25.33;;;;;;;5.22;100.00;101782.50;2091395;28;20048;-67
2021/11/17 07:13:41;;;;;;;81.43;26.20;;;;;;;5.24;100.00;101785.94;2090624;28;20017;-69
2021/11/17 07:14:42;;;;;;;87.20;26.27;;;;;;;5.25;100.00;101790.25;2090741;28;20124;-68
2021/11/17 07:15:42;;;;;;;75.63;26.17;;;;;;;5.26;100.00;101795.41;2091188;28;20021;-69
2021/11/17 07:16:43;;;;;;;85.20;28.00;;;;;;;5.27;100.00;101798.88;2090597;28;20506;-69
2021/11/17 07:17:43;;;;;;;74.50;26.03;;;;;;;5.28;100.00;101798.00;2090759;28;20029;-69
2021/11/17 07:18:43;;;;;;;79.90;27.20;;;;;;;5.28;100.00;101792.84;2091270;28;20041;-69
2021/11/17 07:19:44;;;;;;;76.90;26.73;;;;;;;5.29;100.00;101794.53;2091239;28;20553;-68
2021/11/17 07:20:45;;;;;;;79.73;25.07;;;;;;;5.30;100.00;101800.59;2091383;28;20017;-68
2021/11/17 07:21:45;;;;;;;78.63;25.00;;;;;;;5.30;100.00;101800.59;2091194;28;20017;-68
2021/11/17 07:22:46;;;;;;;80.60;25.80;;;;;;;5.32;100.00;101798.84;2091223;28;20466;-68
2021/11/17 07:23:46;;;;;;;83.80;27.25;;;;;;;5.33;100.00;101798.84;2090599;28;20540;-70
2021/11/17 07:24:46;;;;;;;80.70;26.07;;;;;;;5.33;100.00;101795.41;2090534;28;20075;-68
2021/11/17 07:25:47;;;;;;;73.57;25.97;;;;;;;5.34;100.00;101797.13;2091269;28;20037;-68
2021/11/17 07:26:47;;;;;;;73.30;25.13;;;;;;;5.34;100.00;101800.53;2091244;28;20020;-68
2021/11/17 07:27:47;;;;;;;72.73;25.27;;;;;;;5.36;100.00;101800.53;2091250;28;20021;-70
2021/11/17 07:28:48;;;;;;;78.37;26.23;;;;;;;5.36;100.00;101808.31;2091161;28;20021;-69
2021/11/17 07:29:50;;;;;;;74.80;25.00;;;;;;;5.37;100.00;101813.47;2091180;28;20493;-69
2021/11/17 07:30:51;;;;;;;78.50;24.67;;;;;;;5.38;100.00;101820.38;2091265;28;20018;-68
2021/11/17 07:31:51;;;;;;;88.03;24.67;;;;;;;5.39;100.00;101816.94;2091088;28;20104;-67
2021/11/17 07:32:52;;;;;;;76.13;25.70;;;;;;;5.41;100.00;101817.78;2091095;28;20078;-67
2021/11/17 07:33:52;;;;;;;75.32;27.30;;;;;;;5.43;100.00;101812.59;2091057;28;20071;-67
2021/11/17 07:34:53;;;;;;;75.33;25.23;;;;;;;5.44;100.00;101819.47;2091163;28;20016;-67
2021/11/17 07:35:54;;;;;;;75.70;25.05;;;;;;;5.45;100.00;101822.94;2091018;28;20057;-68
2021/11/17 07:36:54;;;;;;;70.85;22.83;;;;;;;5.46;100.00;101822.06;2091213;28;20047;-68
2021/11/17 07:37:56;;;;;;;76.07;25.93;;;;;;;5.46;100.00;101816.88;2090432;28;20021;-67
2021/11/17 07:38:56;;;;;;;71.80;25.70;;;;;;;5.48;100.00;101822.94;2090570;28;20013;-67
2021/11/17 07:39:56;;;;;;;74.60;26.07;;;;;;;5.49;100.00;101822.94;2091252;28;20033;-67
2021/11/17 07:40:57;;;;;;;70.63;24.80;;;;;;;5.51;100.00;101817.75;2090689;28;20087;-68
2021/11/17 07:41:57;;;;;;;65.20;22.53;;;;;;;5.51;100.00;101816.00;2092207;28;20482;-67
2021/11/17 07:42:58;;;;;;;71.30;22.87;;;;;;;5.52;100.00;101822.03;2091279;28;20513;-67
2021/11/17 07:43:58;;;;;;;72.27;23.23;;;;;;;5.52;100.00;101819.44;2091189;28;20385;-66
2021/11/17 07:44:58;;;;;;;75.93;27.97;;;;;;;5.52;100.00;101816.88;2090560;28;20033;-69
2021/11/17 07:45:59;;;;;;;80.53;25.93;;;;;;;5.53;100.00;101816.88;2082316;28;20037;-67
2021/11/17 07:46:59;;;;;;;75.67;26.97;;;;;;;5.53;100.00;101813.41;2090480;28;20044;-67
2021/11/17 07:48:00;;;;;;;78.00;26.40;;;;;;;5.53;100.00;101816.00;2089639;28;20410;-66
2021/11/17 07:49:00;;;;;;;67.82;24.38;;;;;;;5.54;100.00;101823.75;2090511;28;20025;-66
2021/11/17 07:50:02;;;;;;;69.63;26.70;;;;;;;5.55;100.00;101824.63;2090309;28;20510;-67
2021/11/17 07:51:03;;;;;;;75.72;25.88;;;;;;;5.56;100.00;101834.09;2090433;28;20051;-67
2021/11/17 07:52:04;;;;;;;67.22;23.98;;;;;;;5.57;100.00;101828.06;2091039;28;20025;-66
2021/11/17 07:53:05;;;;;;;82.72;27.83;;;;;;;5.57;100.00;101819.44;2090961;28;20108;-67
2021/11/17 07:54:05;;;;;;;79.88;26.00;;;;;;;5.57;100.00;101820.28;2090968;28;20021;-66
2021/11/17 07:55:10;;;;;;;71.17;23.90;;;;;;;5.59;100.00;101822.88;2091059;28;20056;-66
2021/11/17 07:56:13;;;;;;;74.75;24.42;;;;;;;5.59;100.00;101818.56;2090922;28;20283;-67